createdAt,value
2023-03-11T00:02:12.687Z,3.55
2023-03-11T00:06:38.290Z,4.10
2023-03-11T00:11:01.022Z,4.03
2023-03-11T00:15:23.323Z,4.78
2023-03-11T00:19:45.292Z,4.60
2023-03-11T00:24:07.703Z,4.90
2023-03-11T00:28:29.549Z,5.03
2023-03-11T00:32:54.961Z,5.28
2023-03-11T00:37:16.682Z,5.82
2023-03-11T00:41:38.947Z,5.93
2023-03-11T00:46:01.231Z,6.00
2023-03-11T00:50:31.461Z,6.80
2023-03-11T00:54:53.383Z,7.18
2023-03-11T00:59:15.845Z,7.35
2023-03-11T01:03:38.839Z,7.13
2023-03-11T01:08:02.142Z,7.05
2023-03-11T01:12:24.401Z,7.22
2023-03-11T01:16:46.801Z,7.25
2023-03-11T01:21:11.166Z,7.68
2023-03-11T01:25:34.412Z,7.53
2023-03-11T01:29:56.320Z,6.90
2023-03-11T01:34:18.398Z,7.13
2023-03-11T01:38:40.520Z,7.97
2023-03-11T01:43:04.362Z,7.45
2023-03-11T01:47:40.081Z,7.13
2023-03-11T01:52:08.096Z,5.90
2023-03-11T01:56:39.155Z,6.60
2023-03-11T02:01:03.418Z,5.80
2023-03-11T02:05:26.274Z,5.57
2023-03-11T02:09:48.735Z,5.30
2023-03-11T02:14:11.018Z,4.93
2023-03-11T02:18:33.893Z,5.60
2023-03-11T02:22:57.353Z,5.60
2023-03-11T02:27:22.464Z,6.40
2023-03-11T02:31:47.017Z,5.43
2023-03-11T02:36:37.568Z,6.22
2023-03-11T02:41:03.129Z,5.72
2023-03-11T02:45:27.667Z,6.63
2023-03-11T02:49:49.941Z,6.45
2023-03-11T02:54:12.280Z,6.28
2023-03-11T02:58:34.451Z,7.05
2023-03-11T03:02:57.059Z,7.10
2023-03-11T03:07:20.697Z,7.55
2023-03-11T03:11:43.023Z,7.70
2023-03-11T03:16:05.942Z,8.15
2023-03-11T03:20:28.358Z,8.23
2023-03-11T03:24:54.621Z,7.95
2023-03-11T03:29:16.517Z,7.07
2023-03-11T03:33:39.479Z,7.85
2023-03-11T03:38:02.916Z,7.30
2023-03-11T03:42:25.448Z,7.70
2023-03-11T03:46:48.489Z,8.25
2023-03-11T03:51:13.078Z,7.28
2023-03-11T03:55:40.018Z,7.65
2023-03-11T04:00:02.267Z,7.43
2023-03-11T04:04:25.037Z,7.43
2023-03-11T04:08:47.786Z,7.10
2023-03-11T04:13:10.325Z,7.18
2023-03-11T04:17:32.504Z,6.57
2023-03-11T04:21:55.685Z,7.45
2023-03-11T04:26:20.006Z,8.20
2023-03-11T04:30:42.324Z,8.00
2023-03-11T04:35:06.500Z,8.55
2023-03-11T04:39:29.325Z,7.82
2023-03-11T04:43:51.700Z,7.28
2023-03-11T04:48:14.116Z,8.30
2023-03-11T04:52:37.757Z,8.07
2023-03-11T04:56:59.955Z,8.15
2023-03-11T05:01:22.525Z,7.63
2023-03-11T05:05:45.835Z,7.53
2023-03-11T05:10:09.484Z,8.88
2023-03-11T05:14:33.044Z,8.23
2023-03-11T05:18:55.066Z,8.52
2023-03-11T05:23:18.056Z,8.60
2023-03-11T05:27:40.361Z,7.85
2023-03-11T05:32:04.516Z,15.43
2023-03-11T05:36:26.498Z,8.02
2023-03-11T05:40:48.581Z,7.75
2023-03-11T05:45:11.222Z,7.35
2023-03-11T05:49:35.444Z,7.85
2023-03-11T05:53:58.811Z,7.70
2023-03-11T05:58:30.676Z,8.10
2023-03-11T06:02:53.223Z,8.25
2023-03-11T06:07:16.422Z,8.60
2023-03-11T06:11:41.859Z,8.38
2023-03-11T06:16:05.422Z,8.65
2023-03-11T06:20:28.373Z,8.20
2023-03-11T06:24:50.555Z,7.32
2023-03-11T06:29:15.000Z,7.30
2023-03-11T06:33:38.118Z,7.00
2023-03-11T06:38:00.709Z,6.93
2023-03-11T06:42:27.441Z,7.53
2023-03-11T06:46:52.837Z,6.93
2023-03-11T06:51:14.941Z,6.97
2023-03-11T06:55:37.244Z,5.85
2023-03-11T07:00:00.272Z,5.80
2023-03-11T07:04:23.160Z,6.40
2023-03-11T07:08:48.657Z,6.30
2023-03-11T07:13:10.819Z,6.35
2023-03-11T07:17:34.081Z,6.05
2023-03-11T07:21:57.337Z,5.60
2023-03-11T07:26:19.444Z,5.85
2023-03-11T07:30:42.289Z,6.05
2023-03-11T07:35:04.598Z,5.78
2023-03-11T07:39:26.635Z,5.90
2023-03-11T07:43:48.641Z,5.55
2023-03-11T07:48:10.849Z,5.78
2023-03-11T07:52:33.509Z,6.07
2023-03-11T07:56:55.478Z,5.80
2023-03-11T08:01:21.791Z,5.38
2023-03-11T08:05:44.010Z,5.10
2023-03-11T08:10:07.082Z,5.25
2023-03-11T08:14:30.518Z,4.88
2023-03-11T08:18:53.340Z,4.95
2023-03-11T08:23:15.608Z,4.88
2023-03-11T08:27:37.438Z,5.28
2023-03-11T08:31:59.769Z,5.72
2023-03-11T08:36:21.904Z,5.07
2023-03-11T08:40:44.217Z,4.95
2023-03-11T08:45:07.657Z,5.25
2023-03-11T08:49:29.860Z,6.07
2023-03-11T08:53:52.998Z,6.43
2023-03-11T08:58:15.196Z,6.03
2023-03-11T09:02:37.148Z,6.00
2023-03-11T09:06:59.082Z,5.47
2023-03-11T09:11:22.758Z,5.50
2023-03-11T09:15:45.017Z,5.78
2023-03-11T09:20:08.097Z,6.15
2023-03-11T09:24:34.636Z,5.90
2023-03-11T09:28:57.016Z,5.82
2023-03-11T09:33:19.239Z,6.13
2023-03-11T09:37:41.018Z,5.82
2023-03-11T09:42:30.537Z,6.00
2023-03-11T10:32:50.760Z,5.60
2023-03-11T10:37:20.016Z,7.10
2023-03-11T10:41:52.732Z,5.75
2023-03-11T10:46:27.498Z,5.20
2023-03-11T10:51:22.973Z,5.80
2023-03-11T10:55:56.087Z,6.05
2023-03-11T11:00:31.204Z,4.95
2023-03-11T11:05:17.864Z,4.47
2023-03-11T11:09:39.945Z,4.53
2023-03-11T11:14:02.296Z,5.32
2023-03-11T11:18:47.644Z,6.85
2023-03-11T11:23:28.381Z,11.30
2023-03-11T11:28:01.995Z,6.57
2023-03-11T11:32:27.764Z,5.65
2023-03-11T11:36:50.088Z,5.90
2023-03-11T11:41:20.940Z,5.85
2023-03-11T11:46:07.989Z,6.05
2023-03-11T11:50:53.293Z,6.78
2023-03-11T11:55:27.037Z,7.10
2023-03-11T11:59:49.582Z,7.63
2023-03-11T12:04:29.963Z,6.93
2023-03-11T12:09:24.483Z,6.05
2023-03-11T12:14:04.683Z,6.07
2023-03-11T12:18:38.504Z,6.03
2023-03-11T12:23:20.672Z,5.05
2023-03-11T12:28:10.697Z,4.85
2023-03-11T12:32:44.520Z,4.82
2023-03-11T12:37:14.976Z,5.95
2023-03-11T12:41:42.162Z,5.35
2023-03-11T12:46:06.567Z,5.45
2023-03-11T12:50:41.357Z,5.55
2023-03-11T12:55:03.287Z,5.57
2023-03-11T13:00:29.028Z,5.28
2023-03-11T13:05:18.447Z,5.88
2023-03-11T13:09:40.872Z,5.55
2023-03-11T13:14:16.314Z,5.32
2023-03-11T13:18:39.281Z,5.63
2023-03-11T13:23:03.754Z,5.28
2023-03-11T13:27:39.773Z,5.85
2023-03-11T13:32:25.353Z,5.80
2023-03-11T13:37:19.554Z,5.47
2023-03-11T13:41:45.292Z,5.68
2023-03-11T13:46:34.076Z,5.80
2023-03-11T13:51:07.836Z,5.88
2023-03-11T13:55:36.056Z,5.45
2023-03-11T14:00:17.937Z,5.63
2023-03-11T14:04:49.182Z,5.22
2023-03-11T14:09:20.091Z,6.65
2023-03-11T14:13:50.162Z,6.65
2023-03-11T14:18:29.123Z,5.85
2023-03-11T14:22:54.250Z,5.47
2023-03-11T14:27:17.692Z,6.50
2023-03-11T14:31:44.201Z,7.05
2023-03-11T14:36:11.747Z,7.93
2023-03-11T14:40:38.180Z,5.85
2023-03-11T14:45:18.929Z,5.57
2023-03-11T14:49:42.129Z,6.20
2023-03-11T14:54:19.740Z,6.22
2023-03-11T14:58:49.205Z,6.00
2023-03-11T15:03:36.118Z,5.60
2023-03-11T15:08:02.703Z,6.05
2023-03-11T15:12:45.630Z,7.63
2023-03-11T15:17:35.399Z,6.88
2023-03-11T15:22:39.487Z,7.72
2023-03-11T15:27:08.567Z,7.13
2023-03-11T15:31:36.128Z,6.60
2023-03-11T15:35:58.217Z,6.90
2023-03-11T15:40:44.066Z,7.15
2023-03-11T15:45:12.361Z,6.85
2023-03-11T15:49:34.688Z,6.78
2023-03-11T15:53:57.092Z,6.88
2023-03-11T15:58:21.007Z,7.32
2023-03-11T16:02:43.407Z,6.40
2023-03-11T16:07:08.309Z,6.40
2023-03-11T16:11:32.865Z,6.50
2023-03-11T16:15:54.716Z,5.95
2023-03-11T16:20:18.448Z,5.82
2023-03-11T16:24:40.703Z,6.90
2023-03-11T16:29:16.656Z,6.45
2023-03-11T16:33:41.518Z,6.03
2023-03-11T16:38:04.032Z,5.78
2023-03-11T16:42:26.094Z,5.95
2023-03-11T16:46:48.521Z,6.78
2023-03-11T16:51:10.526Z,8.98
2023-03-11T16:55:32.810Z,6.55
2023-03-11T16:59:54.927Z,7.18
2023-03-11T17:04:17.949Z,8.15
2023-03-11T17:08:40.219Z,8.25
2023-03-11T17:13:02.184Z,8.15
2023-03-11T17:17:24.520Z,8.07
2023-03-11T17:21:46.318Z,7.35
2023-03-11T17:26:14.333Z,7.93
2023-03-11T17:30:37.779Z,8.43
2023-03-11T17:35:00.252Z,9.32
2023-03-11T17:39:22.164Z,9.82
2023-03-11T17:43:45.331Z,9.93
2023-03-11T17:48:07.404Z,10.52
2023-03-11T17:52:29.932Z,8.82
2023-03-11T17:56:52.332Z,9.98
2023-03-11T18:01:24.066Z,9.07
2023-03-11T18:06:00.870Z,9.38
2023-03-11T18:10:22.929Z,10.80
2023-03-11T18:14:45.184Z,10.25
2023-03-11T18:19:07.440Z,10.43
2023-03-11T18:23:29.824Z,11.23
2023-03-11T18:27:52.244Z,12.27
2023-03-11T18:32:14.270Z,12.10
2023-03-11T18:36:37.767Z,12.25
2023-03-11T18:40:59.656Z,11.70
2023-03-11T18:45:21.889Z,10.95
2023-03-11T18:49:44.328Z,11.95
2023-03-11T18:54:07.524Z,10.77
2023-03-11T18:58:30.052Z,12.10
2023-03-11T19:02:54.045Z,11.98
2023-03-11T19:07:16.179Z,11.05
2023-03-11T19:11:38.321Z,10.38
2023-03-11T19:16:00.865Z,11.07
2023-03-11T19:20:25.691Z,9.93
2023-03-11T19:24:47.625Z,10.35
2023-03-11T19:29:09.557Z,10.88
2023-03-11T19:33:31.674Z,10.15
2023-03-11T19:37:57.328Z,11.35
2023-03-11T19:42:19.472Z,11.57
2023-03-11T19:46:41.766Z,10.10
2023-03-11T19:51:05.842Z,9.80
2023-03-11T19:55:27.592Z,10.95
2023-03-11T19:59:49.693Z,11.15
2023-03-11T20:04:12.768Z,13.32
2023-03-11T20:08:37.509Z,11.70
2023-03-11T20:13:02.341Z,11.02
2023-03-11T20:17:24.488Z,11.77
2023-03-11T20:21:46.587Z,11.32
2023-03-11T20:26:12.981Z,10.75
2023-03-11T20:30:35.070Z,10.95
2023-03-11T20:34:58.070Z,10.70
2023-03-11T20:39:20.029Z,10.68
2023-03-11T20:43:42.900Z,10.13
2023-03-11T20:48:04.909Z,8.63
2023-03-11T20:52:28.767Z,9.63
2023-03-11T20:56:51.173Z,10.15
2023-03-11T21:01:25.166Z,7.93
2023-03-11T21:05:47.636Z,8.25
2023-03-11T21:10:12.783Z,8.10
2023-03-11T21:14:34.670Z,7.68
2023-03-11T21:18:57.489Z,7.63
2023-03-11T21:23:19.637Z,7.65
2023-03-11T21:27:41.911Z,5.97
2023-03-11T21:32:04.555Z,7.00
2023-03-11T21:36:27.547Z,8.20
2023-03-11T21:40:50.860Z,7.35
2023-03-11T21:45:13.093Z,7.45
2023-03-11T21:49:35.400Z,8.88
2023-03-11T21:53:57.974Z,7.90
2023-03-11T21:58:21.010Z,8.05
2023-03-11T22:02:43.215Z,8.07
2023-03-11T22:07:05.325Z,8.65
2023-03-11T22:11:27.685Z,8.10
2023-03-11T22:15:49.757Z,10.05
2023-03-11T22:20:12.959Z,7.65
2023-03-11T22:24:35.264Z,8.30
2023-03-11T22:28:57.629Z,9.10
2023-03-11T22:33:19.868Z,7.30
2023-03-11T22:37:41.789Z,7.53
2023-03-11T22:42:03.732Z,6.55
2023-03-11T22:46:26.678Z,8.15
2023-03-11T22:50:48.991Z,7.63
2023-03-11T22:55:11.871Z,7.47
2023-03-11T22:59:34.059Z,8.50
2023-03-11T23:03:56.212Z,7.47
2023-03-11T23:08:18.700Z,6.95
2023-03-11T23:12:41.292Z,6.30
2023-03-11T23:17:03.401Z,7.40
2023-03-11T23:21:31.840Z,5.72
2023-03-11T23:25:53.911Z,6.28
2023-03-11T23:30:17.156Z,6.80
2023-03-11T23:34:39.293Z,5.10
2023-03-11T23:39:01.116Z,5.55
2023-03-11T23:43:24.690Z,6.25
2023-03-11T23:47:46.754Z,5.47
2023-03-11T23:52:08.711Z,6.20
2023-03-11T23:56:30.870Z,6.40
